This is the latest recevied weather packets stored in our database for station/object XE2OR-10. If no packets are shown the sender has not sent any weather packets the latest 10 day(s).
| Time | Temp. | Humidity | Pressure | Rain* | Wind** | Luminosity | Snow |
|---|---|---|---|---|---|---|---|
| 1778021633 | 34.44° C | 59% | 1008.7 hPa | 0 mm | - | 288 W/m² | - |
| 1778021329 | 34.44° C | 58% | 1008.7 hPa | 0 mm | - | 258 W/m² | - |
| 1778021033 | 34.44° C | 59% | 1008.7 hPa | 0 mm | - | 292 W/m² | - |
| 1778020729 | 34.44° C | 58% | 1008.7 hPa | 0 mm | - | 383 W/m² | - |
| 1778020429 | 33.89° C | 58% | 1008.9 hPa | 0 mm | - | 283 W/m² | - |
| 1778020129 | 34.44° C | 59% | 1008.7 hPa | 0 mm | - | 347 W/m² | - |
| 1778019832 | 34.44° C | 60% | 1008.8 hPa | 0 mm | - | 354 W/m² | - |
| 1778019529 | 34.44° C | 59% | 1008.9 hPa | 0 mm | - | 376 W/m² | - |
| 1778019232 | 34.44° C | 59% | 1008.7 hPa | 0 mm | - | 414 W/m² | - |
| 1778018929 | 34.44° C | 59% | 1008.9 hPa | 0 mm | - | 334 W/m² | - |
| 1778018629 | 35° C | 58% | 1009 hPa | 0 mm | - | 400 W/m² | - |
| 1778018329 | 35° C | 58% | 1009 hPa | 0 mm | - | 541 W/m² | - |
| 1778018032 | 35° C | 59% | 1008.8 hPa | 0 mm | - | 449 W/m² | - |
| 1778017729 | 35° C | 59% | 1009 hPa | 0 mm | - | 465 W/m² | - |
| 1778017433 | 35.56° C | 59% | 1009 hPa | 0 mm | - | 471 W/m² | - |
| 1778017129 | 35.56° C | 58% | 1009.2 hPa | 0 mm | - | 630 W/m² | - |
| 1778016829 | 35° C | 60% | 1009.3 hPa | 0 mm | - | 625 W/m² | - |
| 1778016529 | 34.44° C | 62% | 1009.4 hPa | 0 mm | - | 616 W/m² | - |
| 1778016232 | 35° C | 61% | 1009.3 hPa | 0 mm | - | 432 W/m² | - |
| 1778015928 | 34.44° C | 61% | 1009.6 hPa | 0 mm | - | 402 W/m² | - |
| 1778015632 | 34.44° C | 61% | 1009.6 hPa | 0 mm | - | 605 W/m² | - |
| 1778015329 | 33.89° C | 61% | 1009.7 hPa | 0 mm | - | 566 W/m² | - |
| 1778015029 | 34.44° C | 61% | 1009.8 hPa | 0 mm | - | 547 W/m² | - |
| 1778014729 | 33.89° C | 62% | 1010 hPa | 0 mm | - | 587 W/m² | - |
| 1778014432 | 35° C | 61% | 1009.9 hPa | 0 mm | - | 665 W/m² | - |
* Rain latest hour (hover to see other rain measurements)
** Current wind speed in m/s (hover to see current wind gust speed)